sensor_id;sensor_type;location;lat;lon;timestamp;temperature;humidity
52211;DHT22;38179;52.756;6.906;2024-01-30T00:01:55;4.30;99.90
52211;DHT22;38179;52.756;6.906;2024-01-30T00:04:21;4.40;99.90
52211;DHT22;38179;52.756;6.906;2024-01-30T00:06:46;4.40;99.90
52211;DHT22;38179;52.756;6.906;2024-01-30T00:09:12;4.40;99.90
52211;DHT22;38179;52.756;6.906;2024-01-30T00:11:38;4.80;99.90
52211;DHT22;38179;52.756;6.906;2024-01-30T00:14:04;4.50;99.90
52211;DHT22;38179;52.756;6.906;2024-01-30T00:16:30;4.70;99.90
52211;DHT22;38179;52.756;6.906;2024-01-30T00:18:56;4.50;99.90
52211;DHT22;38179;52.756;6.906;2024-01-30T00:21:22;4.60;99.90
52211;DHT22;38179;52.756;6.906;2024-01-30T00:23:48;4.70;99.90
52211;DHT22;38179;52.756;6.906;2024-01-30T00:26:14;4.80;99.90
52211;DHT22;38179;52.756;6.906;2024-01-30T00:28:43;4.90;99.90
52211;DHT22;38179;52.756;6.906;2024-01-30T00:31:08;4.90;99.90
52211;DHT22;38179;52.756;6.906;2024-01-30T00:33:41;5.10;99.90
52211;DHT22;38179;52.756;6.906;2024-01-30T00:36:08;5.00;99.90
52211;DHT22;38179;52.756;6.906;2024-01-30T00:38:33;5.00;99.90
52211;DHT22;38179;52.756;6.906;2024-01-30T00:40:59;5.20;99.90
52211;DHT22;38179;52.756;6.906;2024-01-30T00:43:25;5.00;99.90
52211;DHT22;38179;52.756;6.906;2024-01-30T00:45:51;4.90;99.90
52211;DHT22;38179;52.756;6.906;2024-01-30T00:48:18;4.90;99.90
52211;DHT22;38179;52.756;6.906;2024-01-30T00:50:44;4.90;99.90
52211;DHT22;38179;52.756;6.906;2024-01-30T00:53:09;5.00;99.90
52211;DHT22;38179;52.756;6.906;2024-01-30T00:55:35;4.90;99.90
52211;DHT22;38179;52.756;6.906;2024-01-30T00:58:01;5.00;99.90
52211;DHT22;38179;52.756;6.906;2024-01-30T01:00:30;4.80;99.90
52211;DHT22;38179;52.756;6.906;2024-01-30T01:02:57;4.70;99.90
52211;DHT22;38179;52.756;6.906;2024-01-30T01:05:23;4.80;99.90
52211;DHT22;38179;52.756;6.906;2024-01-30T01:07:49;4.60;99.90
52211;DHT22;38179;52.756;6.906;2024-01-30T01:10:16;4.60;99.90
52211;DHT22;38179;52.756;6.906;2024-01-30T01:12:43;4.50;99.90
52211;DHT22;38179;52.756;6.906;2024-01-30T01:15:09;4.40;99.90
52211;DHT22;38179;52.756;6.906;2024-01-30T01:17:36;4.30;99.90
52211;DHT22;38179;52.756;6.906;2024-01-30T01:20:02;4.30;99.90
52211;DHT22;38179;52.756;6.906;2024-01-30T01:22:29;4.20;99.90
52211;DHT22;38179;52.756;6.906;2024-01-30T01:24:54;4.30;99.90
52211;DHT22;38179;52.756;6.906;2024-01-30T01:27:20;4.30;99.90
52211;DHT22;38179;52.756;6.906;2024-01-30T01:29:46;4.30;99.90
52211;DHT22;38179;52.756;6.906;2024-01-30T01:32:12;4.30;99.90
52211;DHT22;38179;52.756;6.906;2024-01-30T01:34:38;4.40;99.90
52211;DHT22;38179;52.756;6.906;2024-01-30T01:37:04;4.50;99.90
52211;DHT22;38179;52.756;6.906;2024-01-30T01:39:29;4.40;99.90
52211;DHT22;38179;52.756;6.906;2024-01-30T01:41:55;4.60;99.90
52211;DHT22;38179;52.756;6.906;2024-01-30T01:44:21;4.80;99.90
52211;DHT22;38179;52.756;6.906;2024-01-30T01:46:47;4.50;99.90
52211;DHT22;38179;52.756;6.906;2024-01-30T01:49:14;5.00;99.90
52211;DHT22;38179;52.756;6.906;2024-01-30T01:51:41;4.70;99.90
52211;DHT22;38179;52.756;6.906;2024-01-30T01:54:07;4.90;99.90
52211;DHT22;38179;52.756;6.906;2024-01-30T01:56:34;5.00;99.90
52211;DHT22;38179;52.756;6.906;2024-01-30T01:59:05;5.30;99.90
52211;DHT22;38179;52.756;6.906;2024-01-30T02:01:33;5.40;99.90
52211;DHT22;38179;52.756;6.906;2024-01-30T02:04:00;5.20;99.90
52211;DHT22;38179;52.756;6.906;2024-01-30T02:06:26;5.20;99.90
52211;DHT22;38179;52.756;6.906;2024-01-30T02:08:52;5.20;99.90
52211;DHT22;38179;52.756;6.906;2024-01-30T02:11:19;5.20;99.90
52211;DHT22;38179;52.756;6.906;2024-01-30T02:13:45;5.20;99.90
52211;DHT22;38179;52.756;6.906;2024-01-30T02:16:11;5.20;99.90
52211;DHT22;38179;52.756;6.906;2024-01-30T02:18:37;5.20;99.90
52211;DHT22;38179;52.756;6.906;2024-01-30T02:21:08;5.10;99.90
52211;DHT22;38179;52.756;6.906;2024-01-30T02:23:34;5.10;99.90
52211;DHT22;38179;52.756;6.906;2024-01-30T02:26:00;5.10;99.90
52211;DHT22;38179;52.756;6.906;2024-01-30T02:28:26;5.10;99.90
52211;DHT22;38179;52.756;6.906;2024-01-30T02:30:52;5.10;99.90
52211;DHT22;38179;52.756;6.906;2024-01-30T02:33:18;5.00;99.90
52211;DHT22;38179;52.756;6.906;2024-01-30T02:35:44;4.90;99.90
52211;DHT22;38179;52.756;6.906;2024-01-30T02:38:10;4.90;99.90
52211;DHT22;38179;52.756;6.906;2024-01-30T02:40:36;4.90;99.90
52211;DHT22;38179;52.756;6.906;2024-01-30T02:43:02;5.00;99.90
52211;DHT22;38179;52.756;6.906;2024-01-30T02:45:28;5.00;99.90
52211;DHT22;38179;52.756;6.906;2024-01-30T02:47:54;4.90;99.90
52211;DHT22;38179;52.756;6.906;2024-01-30T02:50:19;4.90;99.90
52211;DHT22;38179;52.756;6.906;2024-01-30T02:52:45;4.90;99.90
52211;DHT22;38179;52.756;6.906;2024-01-30T02:55:11;5.00;99.90
52211;DHT22;38179;52.756;6.906;2024-01-30T02:57:38;4.90;99.90
52211;DHT22;38179;52.756;6.906;2024-01-30T03:00:04;4.90;99.90
52211;DHT22;38179;52.756;6.906;2024-01-30T03:02:32;4.90;99.90
52211;DHT22;38179;52.756;6.906;2024-01-30T03:04:59;4.90;99.90
52211;DHT22;38179;52.756;6.906;2024-01-30T03:07:25;4.90;99.90
52211;DHT22;38179;52.756;6.906;2024-01-30T03:09:50;4.90;99.90
52211;DHT22;38179;52.756;6.906;2024-01-30T03:12:16;5.10;99.90
52211;DHT22;38179;52.756;6.906;2024-01-30T03:14:42;5.40;99.90
52211;DHT22;38179;52.756;6.906;2024-01-30T03:17:07;4.90;99.90
52211;DHT22;38179;52.756;6.906;2024-01-30T03:19:33;4.90;99.90
52211;DHT22;38179;52.756;6.906;2024-01-30T03:21:59;5.00;99.90
52211;DHT22;38179;52.756;6.906;2024-01-30T03:24:25;4.90;99.90
52211;DHT22;38179;52.756;6.906;2024-01-30T03:26:51;4.80;99.90
52211;DHT22;38179;52.756;6.906;2024-01-30T03:29:16;4.80;99.90
52211;DHT22;38179;52.756;6.906;2024-01-30T03:31:42;4.80;99.90
52211;DHT22;38179;52.756;6.906;2024-01-30T03:34:08;4.70;99.90
52211;DHT22;38179;52.756;6.906;2024-01-30T03:36:33;4.80;99.90
52211;DHT22;38179;52.756;6.906;2024-01-30T03:39:00;4.80;99.90
52211;DHT22;38179;52.756;6.906;2024-01-30T03:41:26;5.00;99.90
52211;DHT22;38179;52.756;6.906;2024-01-30T03:43:52;4.90;99.90
52211;DHT22;38179;52.756;6.906;2024-01-30T03:46:18;4.90;99.90
52211;DHT22;38179;52.756;6.906;2024-01-30T03:48:44;5.10;99.90
52211;DHT22;38179;52.756;6.906;2024-01-30T03:51:10;5.10;99.90
52211;DHT22;38179;52.756;6.906;2024-01-30T03:53:43;5.30;99.90
52211;DHT22;38179;52.756;6.906;2024-01-30T03:56:09;5.30;99.90
52211;DHT22;38179;52.756;6.906;2024-01-30T03:58:35;5.30;99.90
52211;DHT22;38179;52.756;6.906;2024-01-30T04:01:01;5.40;99.90
52211;DHT22;38179;52.756;6.906;2024-01-30T04:03:26;5.40;99.90
52211;DHT22;38179;52.756;6.906;2024-01-30T04:05:53;5.40;99.90
52211;DHT22;38179;52.756;6.906;2024-01-30T04:08:19;5.40;99.90
52211;DHT22;38179;52.756;6.906;2024-01-30T04:10:45;5.40;99.90
52211;DHT22;38179;52.756;6.906;2024-01-30T04:13:11;5.40;99.90
52211;DHT22;38179;52.756;6.906;2024-01-30T04:15:36;5.40;99.90
52211;DHT22;38179;52.756;6.906;2024-01-30T04:18:02;5.40;99.90
52211;DHT22;38179;52.756;6.906;2024-01-30T04:20:29;5.40;99.90
52211;DHT22;38179;52.756;6.906;2024-01-30T04:22:55;5.50;99.90
52211;DHT22;38179;52.756;6.906;2024-01-30T04:25:20;5.40;99.90
52211;DHT22;38179;52.756;6.906;2024-01-30T04:27:46;5.50;99.90
52211;DHT22;38179;52.756;6.906;2024-01-30T04:30:12;5.50;99.90
52211;DHT22;38179;52.756;6.906;2024-01-30T04:32:38;5.60;99.90
52211;DHT22;38179;52.756;6.906;2024-01-30T04:35:04;5.70;99.90
52211;DHT22;38179;52.756;6.906;2024-01-30T04:37:30;5.70;99.90
52211;DHT22;38179;52.756;6.906;2024-01-30T04:39:56;5.80;99.90
52211;DHT22;38179;52.756;6.906;2024-01-30T04:42:22;5.80;99.90
52211;DHT22;38179;52.756;6.906;2024-01-30T04:44:47;5.90;99.90
52211;DHT22;38179;52.756;6.906;2024-01-30T04:47:13;5.90;99.90
52211;DHT22;38179;52.756;6.906;2024-01-30T04:49:39;5.80;99.90
52211;DHT22;38179;52.756;6.906;2024-01-30T04:52:06;5.80;99.90
52211;DHT22;38179;52.756;6.906;2024-01-30T04:54:32;5.80;99.90
52211;DHT22;38179;52.756;6.906;2024-01-30T04:56:57;5.80;99.90
52211;DHT22;38179;52.756;6.906;2024-01-30T04:59:24;5.80;99.90
52211;DHT22;38179;52.756;6.906;2024-01-30T05:01:49;5.80;99.90
52211;DHT22;38179;52.756;6.906;2024-01-30T05:04:17;5.90;99.90
52211;DHT22;38179;52.756;6.906;2024-01-30T05:06:43;5.80;99.90
52211;DHT22;38179;52.756;6.906;2024-01-30T05:09:08;5.80;99.90
52211;DHT22;38179;52.756;6.906;2024-01-30T05:11:41;5.70;99.90
52211;DHT22;38179;52.756;6.906;2024-01-30T05:14:07;5.60;99.90
52211;DHT22;38179;52.756;6.906;2024-01-30T05:16:34;5.60;99.90
52211;DHT22;38179;52.756;6.906;2024-01-30T05:18:59;5.60;99.90
52211;DHT22;38179;52.756;6.906;2024-01-30T05:21:25;5.60;99.90
52211;DHT22;38179;52.756;6.906;2024-01-30T05:23:51;5.80;99.90
52211;DHT22;38179;52.756;6.906;2024-01-30T05:26:17;5.80;99.90
52211;DHT22;38179;52.756;6.906;2024-01-30T05:28:43;5.90;99.90
52211;DHT22;38179;52.756;6.906;2024-01-30T05:31:10;5.90;99.90
52211;DHT22;38179;52.756;6.906;2024-01-30T05:33:36;6.00;99.90
52211;DHT22;38179;52.756;6.906;2024-01-30T05:36:02;5.90;99.90
52211;DHT22;38179;52.756;6.906;2024-01-30T05:38:29;6.00;99.90
52211;DHT22;38179;52.756;6.906;2024-01-30T05:40:56;6.10;99.90
52211;DHT22;38179;52.756;6.906;2024-01-30T05:43:23;6.10;99.90
52211;DHT22;38179;52.756;6.906;2024-01-30T05:45:49;6.10;99.90
52211;DHT22;38179;52.756;6.906;2024-01-30T05:48:15;6.10;99.90
52211;DHT22;38179;52.756;6.906;2024-01-30T05:50:41;6.10;99.90
52211;DHT22;38179;52.756;6.906;2024-01-30T05:53:07;6.10;99.90
52211;DHT22;38179;52.756;6.906;2024-01-30T05:55:32;6.10;99.90
52211;DHT22;38179;52.756;6.906;2024-01-30T05:57:58;6.10;99.90
52211;DHT22;38179;52.756;6.906;2024-01-30T06:00:24;6.10;99.90
52211;DHT22;38179;52.756;6.906;2024-01-30T06:02:49;6.30;99.90
52211;DHT22;38179;52.756;6.906;2024-01-30T06:05:15;6.40;99.90
52211;DHT22;38179;52.756;6.906;2024-01-30T06:07:41;6.40;99.90
52211;DHT22;38179;52.756;6.906;2024-01-30T06:10:07;6.60;99.90
52211;DHT22;38179;52.756;6.906;2024-01-30T06:12:37;6.70;99.90
52211;DHT22;38179;52.756;6.906;2024-01-30T06:15:03;6.80;99.90
52211;DHT22;38179;52.756;6.906;2024-01-30T06:17:29;7.00;99.90
52211;DHT22;38179;52.756;6.906;2024-01-30T06:19:54;7.10;99.90
52211;DHT22;38179;52.756;6.906;2024-01-30T06:22:20;7.20;99.90
52211;DHT22;38179;52.756;6.906;2024-01-30T06:24:46;7.30;99.90
52211;DHT22;38179;52.756;6.906;2024-01-30T06:27:14;7.40;99.90
52211;DHT22;38179;52.756;6.906;2024-01-30T06:29:40;7.50;99.90
52211;DHT22;38179;52.756;6.906;2024-01-30T06:32:06;7.50;99.90
52211;DHT22;38179;52.756;6.906;2024-01-30T06:34:32;7.60;99.90
52211;DHT22;38179;52.756;6.906;2024-01-30T06:36:57;7.50;99.90
52211;DHT22;38179;52.756;6.906;2024-01-30T06:39:23;7.60;99.90
52211;DHT22;38179;52.756;6.906;2024-01-30T06:41:49;7.60;99.90
52211;DHT22;38179;52.756;6.906;2024-01-30T06:44:14;7.60;99.90
52211;DHT22;38179;52.756;6.906;2024-01-30T06:46:40;7.60;99.90
52211;DHT22;38179;52.756;6.906;2024-01-30T06:49:06;7.60;99.90
52211;DHT22;38179;52.756;6.906;2024-01-30T06:51:32;7.60;99.90
52211;DHT22;38179;52.756;6.906;2024-01-30T06:53:57;7.80;99.90
52211;DHT22;38179;52.756;6.906;2024-01-30T06:56:23;7.60;99.90
52211;DHT22;38179;52.756;6.906;2024-01-30T06:58:49;7.60;99.90
52211;DHT22;38179;52.756;6.906;2024-01-30T07:01:15;7.70;99.90
52211;DHT22;38179;52.756;6.906;2024-01-30T07:03:42;7.50;99.90
52211;DHT22;38179;52.756;6.906;2024-01-30T07:06:08;7.60;99.90
52211;DHT22;38179;52.756;6.906;2024-01-30T07:08:34;7.60;99.90
52211;DHT22;38179;52.756;6.906;2024-01-30T07:11:00;7.60;99.90
52211;DHT22;38179;52.756;6.906;2024-01-30T07:13:25;7.60;99.90
52211;DHT22;38179;52.756;6.906;2024-01-30T07:15:51;7.60;99.90
52211;DHT22;38179;52.756;6.906;2024-01-30T07:18:17;7.70;99.90
52211;DHT22;38179;52.756;6.906;2024-01-30T07:20:42;7.70;99.90
52211;DHT22;38179;52.756;6.906;2024-01-30T07:23:14;7.80;99.90
52211;DHT22;38179;52.756;6.906;2024-01-30T07:25:42;7.80;99.90
52211;DHT22;38179;52.756;6.906;2024-01-30T07:28:08;7.80;99.90
52211;DHT22;38179;52.756;6.906;2024-01-30T07:30:35;7.80;99.90
52211;DHT22;38179;52.756;6.906;2024-01-30T07:33:01;7.90;99.90
52211;DHT22;38179;52.756;6.906;2024-01-30T07:35:26;7.80;99.90
52211;DHT22;38179;52.756;6.906;2024-01-30T07:37:52;8.00;99.90
52211;DHT22;38179;52.756;6.906;2024-01-30T07:40:18;8.00;99.90
52211;DHT22;38179;52.756;6.906;2024-01-30T07:42:43;7.90;99.90
52211;DHT22;38179;52.756;6.906;2024-01-30T07:45:09;7.90;99.90
52211;DHT22;38179;52.756;6.906;2024-01-30T07:47:35;7.90;99.90
52211;DHT22;38179;52.756;6.906;2024-01-30T07:50:01;8.00;99.90
52211;DHT22;38179;52.756;6.906;2024-01-30T07:52:27;8.00;99.90
52211;DHT22;38179;52.756;6.906;2024-01-30T07:54:53;8.00;99.90
52211;DHT22;38179;52.756;6.906;2024-01-30T07:57:18;8.00;99.90
52211;DHT22;38179;52.756;6.906;2024-01-30T07:59:45;8.00;99.90
52211;DHT22;38179;52.756;6.906;2024-01-30T08:02:14;7.90;99.90
52211;DHT22;38179;52.756;6.906;2024-01-30T08:04:40;7.90;99.90
52211;DHT22;38179;52.756;6.906;2024-01-30T08:07:06;7.90;99.90
52211;DHT22;38179;52.756;6.906;2024-01-30T08:09:33;7.90;99.90
52211;DHT22;38179;52.756;6.906;2024-01-30T08:11:59;7.90;99.90
52211;DHT22;38179;52.756;6.906;2024-01-30T08:14:24;7.90;99.90
52211;DHT22;38179;52.756;6.906;2024-01-30T08:16:51;8.00;99.90
52211;DHT22;38179;52.756;6.906;2024-01-30T08:19:17;7.90;99.90
52211;DHT22;38179;52.756;6.906;2024-01-30T08:21:42;7.90;99.90
52211;DHT22;38179;52.756;6.906;2024-01-30T08:24:08;8.00;99.90
52211;DHT22;38179;52.756;6.906;2024-01-30T08:26:34;7.90;99.90
52211;DHT22;38179;52.756;6.906;2024-01-30T08:29:01;7.90;99.90
52211;DHT22;38179;52.756;6.906;2024-01-30T08:31:29;7.90;99.90
52211;DHT22;38179;52.756;6.906;2024-01-30T08:33:55;7.90;99.90
52211;DHT22;38179;52.756;6.906;2024-01-30T08:36:21;7.90;99.90
52211;DHT22;38179;52.756;6.906;2024-01-30T08:38:47;7.90;99.90
52211;DHT22;38179;52.756;6.906;2024-01-30T08:41:12;7.90;99.90
52211;DHT22;38179;52.756;6.906;2024-01-30T08:43:38;7.90;99.90
52211;DHT22;38179;52.756;6.906;2024-01-30T08:46:04;7.90;99.90
52211;DHT22;38179;52.756;6.906;2024-01-30T08:48:32;7.90;99.90
52211;DHT22;38179;52.756;6.906;2024-01-30T08:50:58;8.00;99.90
52211;DHT22;38179;52.756;6.906;2024-01-30T08:53:24;8.00;99.90
52211;DHT22;38179;52.756;6.906;2024-01-30T08:55:50;8.00;99.90
52211;DHT22;38179;52.756;6.906;2024-01-30T08:58:16;8.00;99.90
52211;DHT22;38179;52.756;6.906;2024-01-30T09:00:43;8.10;99.90
52211;DHT22;38179;52.756;6.906;2024-01-30T09:03:09;8.10;99.90
52211;DHT22;38179;52.756;6.906;2024-01-30T09:05:34;8.10;99.90
52211;DHT22;38179;52.756;6.906;2024-01-30T09:08:00;8.20;99.90
52211;DHT22;38179;52.756;6.906;2024-01-30T09:10:26;8.30;99.90
52211;DHT22;38179;52.756;6.906;2024-01-30T09:12:52;8.30;99.90
52211;DHT22;38179;52.756;6.906;2024-01-30T09:15:18;8.30;99.90
52211;DHT22;38179;52.756;6.906;2024-01-30T09:17:44;8.40;99.90
52211;DHT22;38179;52.756;6.906;2024-01-30T09:20:10;8.60;99.90
52211;DHT22;38179;52.756;6.906;2024-01-30T09:22:36;8.40;99.90
52211;DHT22;38179;52.756;6.906;2024-01-30T09:25:02;8.40;99.90
52211;DHT22;38179;52.756;6.906;2024-01-30T09:27:30;8.50;99.90
52211;DHT22;38179;52.756;6.906;2024-01-30T09:29:56;8.50;99.90
52211;DHT22;38179;52.756;6.906;2024-01-30T09:32:22;8.50;99.90
52211;DHT22;38179;52.756;6.906;2024-01-30T09:34:47;8.60;99.90
52211;DHT22;38179;52.756;6.906;2024-01-30T09:37:13;8.60;99.90
52211;DHT22;38179;52.756;6.906;2024-01-30T09:39:41;8.60;99.90
52211;DHT22;38179;52.756;6.906;2024-01-30T09:42:25;8.70;99.90
52211;DHT22;38179;52.756;6.906;2024-01-30T09:44:53;8.80;99.90
52211;DHT22;38179;52.756;6.906;2024-01-30T09:47:19;8.80;99.90
52211;DHT22;38179;52.756;6.906;2024-01-30T09:49:44;8.90;99.90
52211;DHT22;38179;52.756;6.906;2024-01-30T09:52:11;8.90;99.90
52211;DHT22;38179;52.756;6.906;2024-01-30T09:54:38;9.00;99.90
52211;DHT22;38179;52.756;6.906;2024-01-30T09:57:04;9.00;99.90
52211;DHT22;38179;52.756;6.906;2024-01-30T09:59:30;9.00;99.90
52211;DHT22;38179;52.756;6.906;2024-01-30T10:01:57;9.00;99.90
52211;DHT22;38179;52.756;6.906;2024-01-30T10:04:22;9.00;99.90
52211;DHT22;38179;52.756;6.906;2024-01-30T10:06:48;9.00;99.90
52211;DHT22;38179;52.756;6.906;2024-01-30T10:09:14;9.00;99.90
52211;DHT22;38179;52.756;6.906;2024-01-30T10:11:40;9.00;99.90
52211;DHT22;38179;52.756;6.906;2024-01-30T10:14:06;9.00;99.90
52211;DHT22;38179;52.756;6.906;2024-01-30T10:16:31;9.00;99.90
52211;DHT22;38179;52.756;6.906;2024-01-30T10:18:57;9.10;99.90
52211;DHT22;38179;52.756;6.906;2024-01-30T10:21:23;9.10;99.90
52211;DHT22;38179;52.756;6.906;2024-01-30T10:23:49;9.10;99.90
52211;DHT22;38179;52.756;6.906;2024-01-30T10:26:16;9.20;99.90
52211;DHT22;38179;52.756;6.906;2024-01-30T10:28:43;9.20;99.90
52211;DHT22;38179;52.756;6.906;2024-01-30T10:31:08;9.20;99.90
52211;DHT22;38179;52.756;6.906;2024-01-30T10:33:34;9.20;99.90
52211;DHT22;38179;52.756;6.906;2024-01-30T10:36:02;9.20;99.90
52211;DHT22;38179;52.756;6.906;2024-01-30T10:38:29;9.30;99.90
52211;DHT22;38179;52.756;6.906;2024-01-30T10:40:59;9.30;99.90
52211;DHT22;38179;52.756;6.906;2024-01-30T10:43:34;9.40;99.90
52211;DHT22;38179;52.756;6.906;2024-01-30T10:46:18;9.40;99.90
52211;DHT22;38179;52.756;6.906;2024-01-30T10:48:57;9.50;99.90
52211;DHT22;38179;52.756;6.906;2024-01-30T10:51:26;9.50;99.90
52211;DHT22;38179;52.756;6.906;2024-01-30T10:53:52;9.50;99.90
52211;DHT22;38179;52.756;6.906;2024-01-30T10:56:20;9.50;99.90
52211;DHT22;38179;52.756;6.906;2024-01-30T10:58:53;9.60;99.90
52211;DHT22;38179;52.756;6.906;2024-01-30T11:01:20;9.60;99.90
52211;DHT22;38179;52.756;6.906;2024-01-30T11:03:50;9.70;99.90
52211;DHT22;38179;52.756;6.906;2024-01-30T11:06:16;9.70;99.90
52211;DHT22;38179;52.756;6.906;2024-01-30T11:08:45;9.70;99.90
52211;DHT22;38179;52.756;6.906;2024-01-30T11:11:10;9.80;99.90
52211;DHT22;38179;52.756;6.906;2024-01-30T11:13:36;9.80;99.90
52211;DHT22;38179;52.756;6.906;2024-01-30T11:16:03;9.80;99.90
52211;DHT22;38179;52.756;6.906;2024-01-30T11:18:30;9.90;99.90
52211;DHT22;38179;52.756;6.906;2024-01-30T11:20:56;9.90;99.90
52211;DHT22;38179;52.756;6.906;2024-01-30T11:23:23;9.90;99.90
52211;DHT22;38179;52.756;6.906;2024-01-30T11:25:49;9.90;99.90
52211;DHT22;38179;52.756;6.906;2024-01-30T11:28:15;9.90;99.90
52211;DHT22;38179;52.756;6.906;2024-01-30T11:30:42;9.90;99.90
52211;DHT22;38179;52.756;6.906;2024-01-30T11:33:08;9.90;99.90
52211;DHT22;38179;52.756;6.906;2024-01-30T11:35:35;9.90;99.90
52211;DHT22;38179;52.756;6.906;2024-01-30T11:38:02;9.90;99.90
52211;DHT22;38179;52.756;6.906;2024-01-30T11:40:30;9.90;99.90
52211;DHT22;38179;52.756;6.906;2024-01-30T11:42:56;9.90;99.90
52211;DHT22;38179;52.756;6.906;2024-01-30T11:45:25;9.90;99.90
52211;DHT22;38179;52.756;6.906;2024-01-30T11:47:51;9.90;99.90
52211;DHT22;38179;52.756;6.906;2024-01-30T11:50:17;10.00;99.90
52211;DHT22;38179;52.756;6.906;2024-01-30T11:52:43;10.00;99.90
52211;DHT22;38179;52.756;6.906;2024-01-30T11:55:10;10.00;99.90
52211;DHT22;38179;52.756;6.906;2024-01-30T11:57:38;10.00;99.90
52211;DHT22;38179;52.756;6.906;2024-01-30T12:00:05;10.00;99.90
52211;DHT22;38179;52.756;6.906;2024-01-30T12:02:41;10.00;99.90
52211;DHT22;38179;52.756;6.906;2024-01-30T12:05:07;10.00;99.90
52211;DHT22;38179;52.756;6.906;2024-01-30T12:07:34;10.10;99.90
52211;DHT22;38179;52.756;6.906;2024-01-30T12:10:00;10.10;99.90
52211;DHT22;38179;52.756;6.906;2024-01-30T12:12:27;10.10;99.90
52211;DHT22;38179;52.756;6.906;2024-01-30T12:14:53;10.10;99.90
52211;DHT22;38179;52.756;6.906;2024-01-30T12:17:31;10.10;99.90
52211;DHT22;38179;52.756;6.906;2024-01-30T12:20:04;10.10;99.90
52211;DHT22;38179;52.756;6.906;2024-01-30T12:22:40;10.20;99.90
52211;DHT22;38179;52.756;6.906;2024-01-30T12:25:09;10.20;99.90
52211;DHT22;38179;52.756;6.906;2024-01-30T12:27:35;10.20;99.90
52211;DHT22;38179;52.756;6.906;2024-01-30T12:30:04;10.30;99.90
52211;DHT22;38179;52.756;6.906;2024-01-30T12:32:30;10.30;99.90
52211;DHT22;38179;52.756;6.906;2024-01-30T12:34:56;10.40;99.90
52211;DHT22;38179;52.756;6.906;2024-01-30T12:37:22;10.50;99.90
52211;DHT22;38179;52.756;6.906;2024-01-30T12:39:51;10.70;99.90
52211;DHT22;38179;52.756;6.906;2024-01-30T12:42:20;10.80;99.90
52211;DHT22;38179;52.756;6.906;2024-01-30T12:44:46;10.80;99.90
52211;DHT22;38179;52.756;6.906;2024-01-30T12:47:12;10.90;99.90
52211;DHT22;38179;52.756;6.906;2024-01-30T12:49:38;10.80;99.90
52211;DHT22;38179;52.756;6.906;2024-01-30T12:52:04;10.80;99.90
52211;DHT22;38179;52.756;6.906;2024-01-30T12:54:30;10.80;99.90
52211;DHT22;38179;52.756;6.906;2024-01-30T12:56:55;10.80;99.90
52211;DHT22;38179;52.756;6.906;2024-01-30T12:59:21;10.80;99.90
52211;DHT22;38179;52.756;6.906;2024-01-30T13:01:47;10.80;99.90
52211;DHT22;38179;52.756;6.906;2024-01-30T13:04:13;10.80;99.90
52211;DHT22;38179;52.756;6.906;2024-01-30T13:06:40;10.70;99.90
52211;DHT22;38179;52.756;6.906;2024-01-30T13:09:06;10.70;99.90
52211;DHT22;38179;52.756;6.906;2024-01-30T13:11:31;10.70;99.90
52211;DHT22;38179;52.756;6.906;2024-01-30T13:13:57;10.60;99.90
52211;DHT22;38179;52.756;6.906;2024-01-30T13:16:23;10.60;99.90
52211;DHT22;38179;52.756;6.906;2024-01-30T13:18:48;10.60;99.90
52211;DHT22;38179;52.756;6.906;2024-01-30T13:21:14;10.50;99.90
52211;DHT22;38179;52.756;6.906;2024-01-30T13:23:40;10.50;99.90
52211;DHT22;38179;52.756;6.906;2024-01-30T13:26:05;10.50;99.90
52211;DHT22;38179;52.756;6.906;2024-01-30T13:28:35;10.40;99.90
52211;DHT22;38179;52.756;6.906;2024-01-30T13:31:01;10.30;99.90
52211;DHT22;38179;52.756;6.906;2024-01-30T13:33:30;10.20;99.90
52211;DHT22;38179;52.756;6.906;2024-01-30T13:35:55;10.20;99.90
52211;DHT22;38179;52.756;6.906;2024-01-30T13:38:21;10.10;99.90
52211;DHT22;38179;52.756;6.906;2024-01-30T13:40:47;10.10;99.90
52211;DHT22;38179;52.756;6.906;2024-01-30T13:43:12;10.10;99.90
52211;DHT22;38179;52.756;6.906;2024-01-30T13:45:38;10.10;99.90
52211;DHT22;38179;52.756;6.906;2024-01-30T13:48:04;10.00;99.90
52211;DHT22;38179;52.756;6.906;2024-01-30T13:50:45;10.10;99.90
52211;DHT22;38179;52.756;6.906;2024-01-30T13:53:11;10.10;99.90
52211;DHT22;38179;52.756;6.906;2024-01-30T13:55:37;10.00;99.90
52211;DHT22;38179;52.756;6.906;2024-01-30T13:58:05;10.00;99.90
52211;DHT22;38179;52.756;6.906;2024-01-30T14:00:30;10.00;99.90
52211;DHT22;38179;52.756;6.906;2024-01-30T14:02:56;10.00;99.90
52211;DHT22;38179;52.756;6.906;2024-01-30T14:05:24;9.90;99.90
52211;DHT22;38179;52.756;6.906;2024-01-30T14:07:51;9.90;99.90
52211;DHT22;38179;52.756;6.906;2024-01-30T14:10:16;9.90;99.90
52211;DHT22;38179;52.756;6.906;2024-01-30T14:12:43;9.80;99.90
52211;DHT22;38179;52.756;6.906;2024-01-30T14:15:13;9.80;99.90
52211;DHT22;38179;52.756;6.906;2024-01-30T14:17:40;9.70;99.90
52211;DHT22;38179;52.756;6.906;2024-01-30T14:20:06;9.70;99.90
52211;DHT22;38179;52.756;6.906;2024-01-30T14:22:33;9.60;99.90
52211;DHT22;38179;52.756;6.906;2024-01-30T14:25:01;9.50;99.90
52211;DHT22;38179;52.756;6.906;2024-01-30T14:27:29;9.50;99.90
52211;DHT22;38179;52.756;6.906;2024-01-30T14:29:56;9.50;99.90
52211;DHT22;38179;52.756;6.906;2024-01-30T14:32:25;9.50;99.90
52211;DHT22;38179;52.756;6.906;2024-01-30T14:34:51;9.50;99.90
52211;DHT22;38179;52.756;6.906;2024-01-30T14:37:19;9.50;99.90
52211;DHT22;38179;52.756;6.906;2024-01-30T14:39:46;9.40;99.90
52211;DHT22;38179;52.756;6.906;2024-01-30T14:42:13;9.40;99.90
52211;DHT22;38179;52.756;6.906;2024-01-30T14:44:39;9.40;99.90
52211;DHT22;38179;52.756;6.906;2024-01-30T14:47:05;9.40;99.90
52211;DHT22;38179;52.756;6.906;2024-01-30T14:49:31;9.40;99.90
52211;DHT22;38179;52.756;6.906;2024-01-30T14:51:57;9.40;99.90
52211;DHT22;38179;52.756;6.906;2024-01-30T14:54:24;9.40;99.90
52211;DHT22;38179;52.756;6.906;2024-01-30T14:56:51;9.40;99.90
52211;DHT22;38179;52.756;6.906;2024-01-30T14:59:17;9.30;99.90
52211;DHT22;38179;52.756;6.906;2024-01-30T15:01:42;9.30;99.90
52211;DHT22;38179;52.756;6.906;2024-01-30T15:04:09;9.30;99.90
52211;DHT22;38179;52.756;6.906;2024-01-30T15:06:35;9.30;99.90
52211;DHT22;38179;52.756;6.906;2024-01-30T15:09:01;9.30;99.90
52211;DHT22;38179;52.756;6.906;2024-01-30T15:11:26;9.30;99.90
52211;DHT22;38179;52.756;6.906;2024-01-30T15:13:55;9.20;99.90
52211;DHT22;38179;52.756;6.906;2024-01-30T15:16:20;9.20;99.90
52211;DHT22;38179;52.756;6.906;2024-01-30T15:18:46;9.20;99.90
52211;DHT22;38179;52.756;6.906;2024-01-30T15:21:12;9.20;99.90
52211;DHT22;38179;52.756;6.906;2024-01-30T15:23:37;9.10;99.90
52211;DHT22;38179;52.756;6.906;2024-01-30T15:26:03;9.10;99.90
52211;DHT22;38179;52.756;6.906;2024-01-30T15:28:38;9.00;99.90
52211;DHT22;38179;52.756;6.906;2024-01-30T15:31:05;9.00;99.90
52211;DHT22;38179;52.756;6.906;2024-01-30T15:33:31;8.90;99.90
52211;DHT22;38179;52.756;6.906;2024-01-30T15:36:00;8.90;99.90
52211;DHT22;38179;52.756;6.906;2024-01-30T15:38:26;8.70;99.90
52211;DHT22;38179;52.756;6.906;2024-01-30T15:40:53;8.70;99.90